Data for 02/09/2008

Time Sea-Level Adjusted Pressure Absolute Pressure Temperature Relative Humidity Dew Point   
(mb) (inHg) (mb) (inHg) (C) (F) (%) (C) (F)
00:05 1012 29.88 841 24.83 -0.3 31.4 48 -10 14.1
00:10 1012 29.88 841 24.83 -0.4 31.3 49 -9.8 14.4
00:15 1012 29.88 841 24.83 -0.4 31.2 48 -10.2 13.7
00:20 1012 29.88 841 24.83 -0.2 31.6 48 -9.9 14.1
00:25 1012 29.88 841 24.83 -0.2 31.6 48 -10 14.1
00:30 1012 29.88 841 24.83 -0.2 31.6 47 -10.1 13.8
00:35 1012 29.88 841 24.83 -0.2 31.7 48 -9.9 14.1
00:40 1012 29.88 841 24.83 -0.2 31.7 48 -10 14.1
00:45 1012 29.88 841 24.83 -0.2 31.6 47 -10.2 13.7
00:50 1012 29.88 841 24.83 -0.1 31.8 48 -10 14.1
00:55 1012 29.88 841 24.83 -0.1 31.8 47 -10.1 13.9
01:00 1012 29.88 841 24.83 0.1 32.1 48 -9.8 14.3
01:05 1012 29.88 841 24.83 0 32 49 -9.6 14.8
01:10 1012 29.88 841 24.83 0 32 49 -9.5 14.9
01:15 1012 29.88 841 24.83 0 32 49 -9.5 14.8
01:20 1012 29.88 842 24.86 0.1 32.1 48 -9.6 14.8
01:25 1012 29.88 841 24.83 0 32 50 -9.3 15.3
01:30 1012 29.88 842 24.86 -0 31.9 50 -9.3 15.2
01:35 1012 29.88 842 24.86 0.1 32.2 49 -9.5 14.9
01:40 1012 29.88 842 24.86 0.2 32.3 49 -9.4 15.2
01:45 1012 29.88 842 24.86 0.1 32.1 49 -9.3 15.3
01:50 1012 29.88 842 24.86 0.2 32.3 49 -9.3 15.2
01:55 1012 29.88 842 24.86 0.2 32.4 49 -9.3 15.2
02:00 1012 29.88 842 24.86 0.3 32.6 48 -9.4 15
02:05 1013 29.91 842 24.86 0.4 32.8 48 -9.4 15.1
02:10 1013 29.91 842 24.86 0.5 32.9 49 -9 15.8
02:15 1013 29.91 842 24.86 0.3 32.5 49 -9.2 15.4
02:20 1013 29.91 842 24.86 0.3 32.6 48 -9.3 15.2
02:25 1013 29.91 842 24.86 0.5 32.8 49 -9 15.8
02:30 1013 29.91 842 24.86 0.4 32.7 49 -9 15.8
02:35 1013 29.91 842 24.86 0.3 32.6 50 -8.9 16.1
02:40 1013 29.91 842 24.86 0.2 32.4 50 -9.1 15.7
02:45 1013 29.91 842 24.86 0.3 32.6 50 -8.9 16.1
02:50 1013 29.91 842 24.86 0.2 32.4 53 -8.3 17.1
02:55 1013 29.91 842 24.86 -0 31.9 53 -8.5 16.6
03:00 1013 29.91 842 24.86 -0 31.9 53 -8.6 16.6
03:05 1013 29.91 842 24.86 -0.1 31.9 51 -9 15.9
03:10 1013 29.91 842 24.86 -0.1 31.8 52 -8.9 16.1
03:15 1013 29.91 842 24.86 -0.2 31.7 51 -9.2 15.5
03:20 1013 29.91 842 24.86 -0.1 31.8 51 -9.1 15.6
03:25 1013 29.91 842 24.86 -0 32 50 -9.2 15.5
03:30 1013 29.91 842 24.86 -0.1 31.9 51 -8.9 15.9
03:35 1013 29.91 842 24.86 -0 32 50 -9.2 15.4
03:40 1013 29.91 842 24.86 0.2 32.3 50 -9 15.8
03:45 1013 29.91 842 24.86 0.2 32.4 51 -8.7 16.3
03:50 1013 29.91 842 24.86 0.3 32.6 50 -8.9 16.1
03:55 1013 29.91 842 24.86 0.4 32.7 50 -8.8 16.1
04:00 1013 29.91 842 24.86 0.4 32.7 50 -8.7 16.3
04:05 1013 29.91 842 24.86 0.4 32.7 51 -8.6 16.5
04:10 1013 29.91 842 24.86 0.3 32.6 52 -8.5 16.8
04:15 1013 29.91 842 24.86 0.4 32.7 51 -8.5 16.7
04:20 1013 29.91 842 24.86 0.4 32.7 51 -8.6 16.6
04:25 1013 29.91 842 24.86 0.5 32.8 52 -8.3 17.1
04:30 1013 29.91 843 24.89 0.5 32.9 51 -8.5 16.8
04:35 1013 29.91 843 24.89 0.5 32.9 52 -8.3 17.1
04:40 1013 29.91 843 24.89 0.6 33 52 -8.3 17
04:45 1013 29.91 843 24.89 0.6 33.1 51 -8.4 16.8
04:50 1014 29.94 843 24.89 0.6 33.2 52 -8.2 17.3
04:55 1013 29.91 843 24.89 0.5 33 53 -8 17.5
05:00 1013 29.91 843 24.89 0.4 32.8 55 -7.6 18.4
05:05 1014 29.94 843 24.89 0.2 32.4 56 -7.5 18.5
05:10 1014 29.94 843 24.89 0.1 32.3 57 -7.5 18.5
05:15 1013 29.91 843 24.89 0.1 32.2 56 -7.7 18.1
05:20 1014 29.94 843 24.89 0.3 32.5 54 -8 17.6
05:25 1014 29.94 843 24.89 0.4 32.7 54 -7.9 17.8
05:30 1014 29.94 843 24.89 0.4 32.8 53 -8.1 17.5
05:35 1014 29.94 843 24.89 0.5 32.9 53 -8 17.6
05:40 1014 29.94 843 24.89 0.5 32.9 52 -8.2 17.3
05:45 1014 29.94 843 24.89 0.6 33.1 52 -8.1 17.4
05:50 1014 29.94 843 24.89 0.6 33.1 53 -8 17.6
05:55 1014 29.94 843 24.89 0.6 33 53 -8 17.6
06:00 1014 29.94 843 24.89 0.5 33 53 -7.9 17.8
06:05 1014 29.94 843 24.89 0.5 32.8 53 -8 17.6
06:10 1014 29.94 843 24.89 0.4 32.7 54 -7.9 17.8
06:15 1014 29.94 843 24.89 0.4 32.7 53 -8.1 17.5
06:20 1014 29.94 843 24.89 0.5 33 54 -7.8 17.9
06:25 1014 29.94 843 24.89 0.6 33 53 -7.9 17.8
06:30 1014 29.94 843 24.89 0.6 33 54 -7.7 18.2
06:35 1014 29.94 843 24.89 0.5 33 54 -7.8 17.9
06:40 1014 29.94 843 24.89 0.7 33.3 54 -7.6 18.3
06:45 1014 29.94 843 24.89 0.8 33.5 54 -7.6 18.4
06:50 1014 29.94 843 24.89 0.8 33.4 53 -7.8 17.9
06:55 1014 29.94 843 24.89 0.8 33.4 52 -7.9 17.7
07:00 1014 29.94 843 24.89 0.9 33.5 52 -7.8 17.9
07:05 1014 29.94 843 24.89 1 33.8 52 -7.8 17.9
07:10 1014 29.94 844 24.92 1 33.8 52 -7.7 18.1
07:15 1014 29.94 844 24.92 0.9 33.7 53 -7.7 18.1
07:20 1014 29.94 844 24.92 1 33.8 53 -7.6 18.3
07:25 1015 29.97 844 24.92 1 33.9 53 -7.6 18.3
07:30 1014 29.94 844 24.92 1.1 34.1 54 -7.2 19.1
07:35 1014 29.94 844 24.92 1.3 34.4 54 -7.1 19.2
07:40 1015 29.97 844 24.92 1.5 34.7 54 -6.9 19.5
07:45 1015 29.97 844 24.92 1.5 34.7 55 -6.7 20
07:50 1015 29.97 844 24.92 1.5 34.6 56 -6.4 20.5
07:55 1015 29.97 844 24.92 1.5 34.8 56 -6.2 20.8
08:00 1015 29.97 844 24.92 1.8 35.2 56 -6.1 21.1
08:05 1015 29.97 844 24.92 1.9 35.4 56 -5.9 21.3
08:10 1015 29.97 844 24.92 2 35.7 56 -5.7 21.7
08:15 1015 29.97 844 24.92 2 35.6 57 -5.7 21.7
08:20 1015 29.97 844 24.92 2.1 35.7 57 -5.7 21.8
08:25 1015 29.97 844 24.92 2.2 35.9 56 -5.7 21.8
08:30 1015 29.97 844 24.92 2.4 36.2 56 -5.6 22
08:35 1015 29.97 844 24.92 2.4 36.3 57 -5.2 22.7
08:40 1015 29.97 844 24.92 2.3 36.1 57 -5.3 22.5
08:45 1015 29.97 844 24.92 2.3 36.2 57 -5.3 22.5
08:50 1015 29.97 844 24.92 2.5 36.5 57 -5.2 22.7
08:55 1015 29.97 844 24.92 2.6 36.7 58 -4.8 23.4
09:00 1015 29.97 844 24.92 2.5 36.5 58 -5 23
09:05 1015 29.97 844 24.92 2.5 36.5 57 -5.1 22.8
09:10 1015 29.97 844 24.92 2.6 36.7 57 -5.1 22.8
09:15 1015 29.97 844 24.92 2.7 36.8 57 -5.1 22.9
09:20 1015 29.97 845 24.95 2.7 36.9 56 -5.2 22.6
09:25 1016 30 845 24.95 2.8 37.1 54 -5.5 22.1
09:30 1016 30 845 24.95 2.8 37 54 -5.7 21.8
09:35 1016 30 845 24.95 2.7 36.8 54 -5.8 21.6
09:40 1016 30 845 24.95 2.7 36.8 54 -5.7 21.7
09:45 1016 30 845 24.95 2.8 37.1 53 -5.8 21.5
09:50 1016 30 845 24.95 3 37.4 52 -6 21.2
09:55 1016 30 845 24.95 3.3 37.9 50 -6.1 21.1
10:00 1016 30 845 24.95 3.5 38.4 50 -6 21.3
10:05 1016 30 845 24.95 3.7 38.6 49 -5.9 21.3
10:10 1016 30 845 24.95 3.7 38.6 50 -5.9 21.5
10:15 1016 30 845 24.95 3.5 38.3 50 -5.9 21.4
10:20 1016 30 845 24.95 3.5 38.2 51 -5.6 21.9
10:25 1016 30 845 24.95 3.5 38.3 51 -5.6 21.9
10:30 1016 30 845 24.95 3.2 37.7 53 -5.5 22
10:35 1016 30 845 24.95 3.2 37.8 53 -5.5 22.1
10:40 1016 30 845 24.95 3.4 38.1 52 -5.5 22
10:45 1016 30 846 24.98 3.6 38.4 51 -5.7 21.8
10:50 1016 30 846 24.98 3.7 38.7 51 -5.4 22.2
10:55 1016 30 846 24.98 3.7 38.7 51 -5.5 22.1
11:00 1016 30 846 24.98 3.7 38.7 51 -5.6 22
11:05 1016 30 845 24.95 3.5 38.3 52 -5.4 22.3
11:10 1016 30 845 24.95 3.4 38.2 51 -5.7 21.8
11:15 1016 30 845 24.95 3.7 38.6 51 -5.6 22
11:20 1016 30 846 24.98 3.8 38.9 52 -5.3 22.5
11:25 1016 30 845 24.95 4.1 39.4 50 -5.4 22.3
11:30 1016 30 846 24.98 4.4 39.9 50 -5 22.9
11:35 1016 30 846 24.98 4.6 40.3 50 -4.9 23.2
11:40 1017 30.03 846 24.98 4.6 40.3 49 -5.2 22.7
11:45 1017 30.03 846 24.98 4.6 40.3 50 -5 23
11:50 1017 30.03 846 24.98 4.6 40.4 49 -5.1 22.9
11:55 1017 30.03 846 24.98 4.8 40.7 49 -5 22.9
12:00 1017 30.03 846 24.98 4.9 40.8 48 -5.1 22.9
12:05 1016 30 846 24.98 5.2 41.4 48 -4.9 23.2
12:10 1017 30.03 846 24.98 5.2 41.4 48 -4.8 23.4
12:15 1016 30 846 24.98 5.2 41.4 48 -4.9 23.2
12:20 1016 30 846 24.98 5.2 41.4 48 -4.8 23.3
12:25 1016 30 846 24.98 5.2 41.4 49 -4.7 23.6
12:30 1016 30 846 24.98 5.1 41.2 50 -4.6 23.7
12:35 1016 30 846 24.98 4.9 40.9 49 -4.8 23.3
12:40 1017 30.03 846 24.98 4.9 40.9 49 -4.8 23.4
12:45 1017 30.03 846 24.98 5.2 41.4 48 -4.9 23.1
12:50 1017 30.03 846 24.98 5.3 41.6 49 -4.6 23.7
12:55 1017 30.03 846 24.98 4.2 39.6 53 -4.5 24
13:00 1017 30.03 846 24.98 3.3 38 55 -4.9 23.1
13:05 1017 30.03 846 24.98 3.4 38.2 53 -5.1 22.7
13:10 1017 30.03 846 24.98 3.6 38.5 54 -4.9 23.3
13:15 1017 30.03 846 24.98 3.8 38.9 54 -4.7 23.5
13:20 1017 30.03 846 24.98 4.1 39.4 53 -4.7 23.6
13:25 1017 30.03 846 24.98 4 39.2 54 -4.5 23.9
13:30 1017 30.03 846 24.98 3.9 38.9 55 -4.4 24
13:35 1017 30.03 846 24.98 3.1 37.5 57 -4.6 23.7
13:40 1017 30.03 846 24.98 3.5 38.3 53 -5.1 22.8
13:45 1017 30.03 846 24.98 4.2 39.6 53 -4.4 24.1
13:50 1017 30.03 846 24.98 4 39.1 53 -4.6 23.7
13:55 1017 30.03 846 24.98 3.4 38.2 57 -4.2 24.5
14:00 1017 30.03 846 24.98 2.5 36.5 59 -4.8 23.4
14:05 1017 30.03 846 24.98 2.1 35.8 60 -4.9 23.3
14:10 1017 30.03 846 24.98 2.1 35.8 61 -4.7 23.5
14:15 1017 30.03 846 24.98 2.2 35.9 59 -4.9 23.1
14:20 1017 30.03 846 24.98 2.4 36.3 59 -4.7 23.5
14:25 1017 30.03 846 24.98 2.4 36.4 60 -4.6 23.7
14:30 1017 30.03 846 24.98 2.3 36.2 60 -4.6 23.6
14:35 1017 30.03 846 24.98 2.4 36.3 59 -4.7 23.5
14:40 1017 30.03 847 25.01 2.5 36.5 60 -4.5 23.9
14:45 1017 30.03 847 25.01 2.2 36 60 -4.8 23.4
14:50 1017 30.03 847 25.01 1.8 35.2 62 -4.7 23.5
14:55 1017 30.03 847 25.01 1.5 34.6 61 -5.2 22.6
15:00 1018 30.06 847 25.01 1.3 34.4 63 -4.9 23.1
15:05 1018 30.06 847 25.01 1.1 34 63 -5.1 22.8
15:10 1018 30.06 847 25.01 0.8 33.5 63 -5.3 22.4
15:15 1018 30.06 847 25.01 0.9 33.6 64 -5.2 22.6
15:20 1018 30.06 847 25.01 1 33.8 64 -5 22.9
15:25 1018 30.06 847 25.01 1.2 34.1 63 -5.1 22.9
15:30 1018 30.06 847 25.01 1.3 34.3 64 -4.8 23.3
15:35 1018 30.06 847 25.01 1.3 34.4 64 -4.7 23.5
15:40 1018 30.06 847 25.01 1.3 34.3 65 -4.6 23.7
15:45 1018 30.06 847 25.01 1.5 34.6 62 -5 23
15:50 1018 30.06 847 25.01 1.8 35.2 63 -4.6 23.7
15:55 1018 30.06 847 25.01 1.7 35.1 63 -4.5 23.8
16:00 1018 30.06 847 25.01 1.9 35.4 61 -4.9 23.2
16:05 1018 30.06 847 25.01 2.3 36.1 61 -4.6 23.7
16:10 1018 30.06 847 25.01 2.3 36.1 61 -4.6 23.8
16:15 1018 30.06 848 25.04 2.3 36.2 60 -4.6 23.7
16:20 1019 30.09 848 25.04 2.4 36.4 61 -4.4 24.2
16:25 1019 30.09 848 25.04 2.2 36 61 -4.6 23.8
16:30 1019 30.09 848 25.04 2.1 35.8 62 -4.5 23.9
16:35 1019 30.09 848 25.04 2 35.7 62 -4.4 24
16:40 1019 30.09 848 25.04 1.9 35.4 63 -4.5 24
16:45 1019 30.09 848 25.04 1.8 35.2 63 -4.5 24
16:50 1019 30.09 848 25.04 1.6 34.9 64 -4.5 23.8
16:55 1019 30.09 848 25.04 1.5 34.6 63 -4.7 23.5
17:00 1019 30.09 848 25.04 1.4 34.4 64 -4.6 23.7
17:05 1019 30.09 848 25.04 1.3 34.4 64 -4.8 23.4
17:10 1019 30.09 848 25.04 1.3 34.4 65 -4.6 23.7
17:15 1019 30.09 848 25.04 1.3 34.4 65 -4.6 23.7
17:20 1019 30.09 848 25.04 1.3 34.3 66 -4.5 24
17:25 1019 30.09 848 25.04 1.2 34.1 66 -4.5 24
17:30 1019 30.09 848 25.04 1.1 34.1 66 -4.5 23.9
17:35 1019 30.09 848 25.04 1.1 34 66 -4.5 23.9
17:40 1019 30.09 848 25.04 1.1 33.9 66 -4.6 23.7
17:45 1019 30.09 849 25.07 1 33.9 67 -4.5 23.9
17:50 1019 30.09 849 25.07 0.9 33.7 67 -4.4 24.1
17:55 1019 30.09 849 25.07 0.7 33.3 70 -4.1 24.6
18:00 1019 30.09 849 25.07 0.4 32.7 70 -4.5 23.9
18:05 1019 30.09 849 25.07 0.4 32.7 69 -4.6 23.7
18:10 1019 30.09 849 25.07 0.5 32.9 70 -4.4 24.1
18:15 1019 30.09 849 25.07 0.5 32.9 70 -4.3 24.2
18:20 1019 30.09 849 25.07 0.5 32.9 70 -4.3 24.3
18:25 1019 30.09 849 25.07 0.3 32.6 72 -4.1 24.6
18:30 1019 30.09 849 25.07 0.2 32.4 72 -4.2 24.4
18:35 1020 30.12 849 25.07 0.3 32.6 72 -4.2 24.4
18:40 1020 30.12 849 25.07 0.4 32.8 72 -4.1 24.7
18:45 1020 30.12 849 25.07 0.5 32.9 72 -4.1 24.6
18:50 1020 30.12 849 25.07 0.5 32.8 70 -4.5 24
18:55 1020 30.12 849 25.07 0.9 33.6 69 -4.3 24.3
19:00 1020 30.12 849 25.07 1.1 34 69 -3.9 25
19:05 1020 30.12 849 25.07 1.1 34 67 -4.3 24.2
19:10 1020 30.12 849 25.07 1.3 34.3 66 -4.4 24.1
19:15 1020 30.12 849 25.07 1.3 34.3 64 -4.7 23.5
19:20 1020 30.12 849 25.07 1.5 34.7 64 -4.6 23.6
19:25 1020 30.12 849 25.07 1.6 34.8 63 -4.7 23.6
19:30 1020 30.12 849 25.07 1.6 34.8 64 -4.5 23.8
19:35 1020 30.12 849 25.07 1.7 35 61 -5.1 22.8
19:40 1020 30.12 849 25.07 1.9 35.4 61 -4.9 23.2
19:45 1020 30.12 849 25.07 2 35.7 60 -4.9 23.1
19:50 1020 30.12 849 25.07 2 35.6 61 -4.8 23.3
19:55 1020 30.12 849 25.07 2.1 35.7 60 -5 23
20:00 1020 30.12 849 25.07 2.1 35.8 61 -4.7 23.5
20:05 1020 30.12 849 25.07 2 35.7 61 -4.8 23.4
20:10 1020 30.12 849 25.07 2.1 35.7 60 -4.8 23.4
20:15 1020 30.12 849 25.07 2.2 36 60 -4.7 23.6
20:20 1020 30.12 849 25.07 2.1 35.8 62 -4.5 23.9
20:25 1019 30.09 849 25.07 1.7 35.1 64 -4.4 24.1
20:30 1019 30.09 849 25.07 1.8 35.2 62 -4.7 23.6
20:35 1020 30.12 849 25.07 1.9 35.4 64 -4.2 24.4
20:40 1020 30.12 849 25.07 1.8 35.2 64 -4.4 24.1
20:45 1020 30.12 849 25.07 1.7 35 64 -4.5 23.9
20:50 1020 30.12 849 25.07 1.5 34.7 64 -4.6 23.8
20:55 1020 30.12 849 25.07 1.3 34.3 66 -4.4 24
21:00 1020 30.12 849 25.07 1.3 34.3 66 -4.4 24
21:05 1020 30.12 849 25.07 1.3 34.4 66 -4.3 24.3
21:10 1020 30.12 849 25.07 1.2 34.2 66 -4.4 24.1
21:15 1020 30.12 849 25.07 1 33.8 67 -4.4 24
21:20 1020 30.12 849 25.07 0.8 33.4 69 -4.3 24.2
21:25 1020 30.12 849 25.07 0.6 33.1 69 -4.4 24.1
21:30 1020 30.12 849 25.07 0.6 33.1 67 -4.8 23.3
21:35 1020 30.12 849 25.07 0.8 33.4 67 -4.7 23.6
21:40 1020 30.12 849 25.07 0.8 33.4 67 -4.6 23.6
21:45 1020 30.12 849 25.07 0.8 33.4 67 -4.7 23.5
21:50 1020 30.12 849 25.07 0.9 33.6 65 -4.9 23.2
21:55 1020 30.12 849 25.07 1 33.9 65 -4.8 23.3
22:00 1020 30.12 849 25.07 0.9 33.7 65 -4.9 23.2
22:05 1020 30.12 849 25.07 1.2 34.2 64 -4.9 23.2
22:10 1020 30.12 849 25.07 1.5 34.7 64 -4.7 23.6
22:15 1020 30.12 849 25.07 1.7 35.1 64 -4.4 24.1
22:20 1020 30.12 849 25.07 1.8 35.2 62 -4.7 23.6
22:25 1020 30.12 849 25.07 1.9 35.5 62 -4.7 23.6
22:30 1020 30.12 849 25.07 2 35.6 61 -4.7 23.6
22:35 1020 30.12 849 25.07 2.2 36 61 -4.6 23.7
22:40 1019 30.09 849 25.07 2.5 36.6 59 -4.7 23.6
22:45 1019 30.09 849 25.07 2.6 36.7 60 -4.4 24
22:50 1019 30.09 848 25.04 3.1 37.5 59 -4.2 24.4
22:55 1019 30.09 848 25.04 3.8 38.8 57 -4 24.8
23:00 1019 30.09 848 25.04 4 39.2 56 -3.9 25
23:05 1019 30.09 848 25.04 3.7 38.7 57 -4 24.7
23:10 1019 30.09 848 25.04 3.6 38.4 57 -4.1 24.7
23:15 1019 30.09 848 25.04 3.5 38.3 58 -4.1 24.6
23:20 1019 30.09 848 25.04 3.4 38.1 58 -4.1 24.7
23:25 1019 30.09 848 25.04 3.3 38 58 -4 24.7
23:30 1019 30.09 848 25.04 3.2 37.8 59 -4.1 24.6
23:35 1019 30.09 848 25.04 3.3 38 58 -4.1 24.7
23:40 1019 30.09 848 25.04 3.7 38.6 58 -3.9 25
23:45 1019 30.09 848 25.04 3.9 39 57 -3.8 25.1
23:50 1019 30.09 848 25.04 4.1 39.4 56 -3.8 25.1
23:55 1019 30.09 848 25.04 4.6 40.2 53 -4.1 24.6
24:00 1019 30.09 848 25.04 5.1 41.1 54 -3.6 25.6